Terminal Aerodrome Forecast
Issued by NWS Omaha/Valley, NE

Home | Current Version | Previous Version | Text Only | Print | Product List | Glossary Off
Versions: 1 2 3 4 5 6 7 8 9 10 11 12 13 14 15 16 17 18 19 20 21 22 23 24 25 26 27 28 29 30 31 32 33 34 35 36 37 38 39 40 41

000
FTUS43 KOAX 241409 AAA
TAFOFK
TAF AMD
KOFK 241409Z 2414/2512 17013KT P6SM SCT025 BKN120
     FM241500 17014G21KT P6SM BKN020
     FM242100 18010KT P6SM SCT025 BKN150
     FM250100 13006KT P6SM BKN025
      TEMPO 2503/2506 3SM -RA BKN015
     FM250600 05006KT 6SM BR OVC008=

USA.gov is the U.S. government's official web portal to all federal, state and local government web resources and services.